Time;durP1;ratioP1;P1;durP2;ratioP2;P2;SDS_P1;SDS_P2;PMS_P1;PMS_P2;Temp;Humidity;BMP_temperature;BMP_pressure;BME280_temperature;BME280_humidity;BME280_pressure;Samples;Min_cycle;Max_cycle;Signal;HPM_P1;HPM_P2
2024/01/31 00:01:49;;;;;;;6.47;0.88;;;6.20;99.90;;;;;;5077669;28;20039;-77
2024/01/31 00:04:14;;;;;;;8.13;0.80;;;6.10;99.90;;;;;;5077700;28;20048;-77
2024/01/31 00:06:41;;;;;;;2.80;0.60;;;6.10;99.90;;;;;;5077738;28;20048;-76
2024/01/31 00:09:10;;;;;;;5.53;1.20;;;6.20;99.90;;;;;;5077599;28;20126;-77
2024/01/31 00:11:40;;;;;;;4.10;0.65;;;6.10;99.90;;;;;;5077575;28;20048;-77
2024/01/31 00:14:07;;;;;;;5.05;1.00;;;6.10;99.90;;;;;;5077763;28;20128;-77
2024/01/31 00:16:33;;;;;;;4.32;0.50;;;6.10;99.90;;;;;;5077531;28;20048;-76
2024/01/31 00:18:59;;;;;;;3.38;0.60;;;6.20;99.90;;;;;;5077540;28;20475;-77
2024/01/31 00:21:25;;;;;;;8.30;0.90;;;6.20;99.90;;;;;;5077500;28;20086;-76
2024/01/31 00:23:50;;;;;;;7.80;1.10;;;6.20;99.90;;;;;;5077551;28;20123;-77
2024/01/31 00:26:16;;;;;;;6.72;0.95;;;6.20;99.90;;;;;;5077583;28;20483;-76
2024/01/31 00:28:42;;;;;;;6.38;1.08;;;6.20;99.90;;;;;;5077291;28;20039;-77
2024/01/31 00:31:11;;;;;;;5.80;0.63;;;6.20;99.90;;;;;;5077162;28;20044;-77
2024/01/31 00:33:37;;;;;;;7.70;1.35;;;6.20;99.90;;;;;;5077582;28;20126;-77
2024/01/31 00:36:02;;;;;;;4.18;0.82;;;6.20;99.90;;;;;;5077597;28;20467;-76
2024/01/31 00:38:28;;;;;;;6.85;0.90;;;6.20;99.90;;;;;;5077359;28;20044;-77
2024/01/31 00:40:54;;;;;;;8.75;1.10;;;6.20;99.90;;;;;;5076899;28;20047;-77
2024/01/31 00:43:20;;;;;;;8.93;1.05;;;6.10;99.90;;;;;;5076879;28;20097;-77
2024/01/31 00:45:45;;;;;;;12.68;1.25;;;6.10;99.90;;;;;;5076612;28;20052;-77
2024/01/31 00:48:11;;;;;;;8.50;0.80;;;6.10;99.90;;;;;;5076928;28;20048;-77
2024/01/31 00:50:36;;;;;;;7.20;0.98;;;6.10;99.90;;;;;;5077180;28;20048;-77
2024/01/31 00:53:03;;;;;;;12.45;1.70;;;6.10;99.90;;;;;;5076746;28;20097;-77
2024/01/31 00:55:28;;;;;;;6.22;1.38;;;6.10;99.90;;;;;;5076556;28;20048;-77
2024/01/31 00:57:57;;;;;;;9.15;0.85;;;6.00;99.90;;;;;;5076480;28;20036;-77
2024/01/31 01:00:23;;;;;;;7.13;1.20;;;5.90;99.90;;;;;;5075705;28;20360;-77
2024/01/31 01:02:49;;;;;;;10.18;1.08;;;5.90;99.90;;;;;;5076369;28;20127;-77
2024/01/31 01:05:15;;;;;;;7.00;1.77;;;5.80;99.90;;;;;;5076595;28;20050;-77
2024/01/31 01:07:45;;;;;;;8.05;1.13;;;5.80;99.90;;;;;;5076508;28;20143;-77
2024/01/31 01:10:12;;;;;;;7.95;1.88;;;5.70;99.90;;;;;;5094666;28;20078;-77
2024/01/31 01:12:41;;;;;;;7.07;0.82;;;5.70;99.90;;;;;;5076364;28;20043;-77
2024/01/31 01:15:08;;;;;;;7.43;1.30;;;5.60;99.90;;;;;;5075724;28;20044;-77
2024/01/31 01:17:35;;;;;;;4.90;0.70;;;5.50;99.90;;;;;;5076634;28;20060;-77
2024/01/31 01:20:04;;;;;;;4.43;0.82;;;5.40;99.90;;;;;;5076397;28;20121;-77
2024/01/31 01:22:29;;;;;;;5.20;0.82;;;5.40;99.90;;;;;;5075959;28;20105;-77
2024/01/31 01:24:55;;;;;;;14.00;1.05;;;5.40;99.90;;;;;;5076267;28;20047;-77
2024/01/31 01:27:21;;;;;;;6.22;1.10;;;5.30;99.90;;;;;;5075970;28;20578;-77
2024/01/31 01:29:47;;;;;;;7.15;1.20;;;5.30;99.90;;;;;;5076119;28;20042;-77
2024/01/31 01:32:12;;;;;;;7.20;1.17;;;5.30;99.90;;;;;;5076355;28;20040;-77
2024/01/31 01:34:41;;;;;;;13.23;2.78;;;5.30;99.90;;;;;;5094152;28;20048;-77
2024/01/31 01:37:07;;;;;;;6.13;0.85;;;5.20;99.90;;;;;;5075807;28;20040;-76
2024/01/31 01:39:34;;;;;;;9.13;0.88;;;5.20;99.90;;;;;;5075756;28;20502;-77
2024/01/31 01:42:00;;;;;;;10.15;1.25;;;5.20;99.90;;;;;;5094034;28;20052;-77
2024/01/31 01:44:29;;;;;;;5.57;1.00;;;5.10;99.90;;;;;;5094058;28;20395;-77
2024/01/31 01:46:55;;;;;;;6.95;1.02;;;5.10;99.90;;;;;;5075831;28;20063;-77
2024/01/31 01:49:22;;;;;;;7.28;1.00;;;5.10;99.90;;;;;;5076345;28;20415;-77
2024/01/31 01:51:50;;;;;;;12.50;1.33;;;5.00;99.90;;;;;;5075657;28;20051;-76
2024/01/31 01:54:15;;;;;;;7.28;1.10;;;5.00;99.90;;;;;;5075586;28;20040;-77
2024/01/31 01:56:48;;;;;;;10.40;1.83;;;5.00;99.90;;;;;;5093911;28;20044;-76
2024/01/31 01:59:19;;;;;;;8.95;1.15;;;5.00;99.90;;;;;;5075667;28;20480;-77
2024/01/31 02:01:46;;;;;;;4.88;0.77;;;4.90;99.90;;;;;;5075656;28;20097;-77
2024/01/31 02:04:13;;;;;;;6.30;1.42;;;4.90;99.90;;;;;;5075770;28;20171;-77
2024/01/31 02:06:39;;;;;;;4.65;0.82;;;4.90;99.90;;;;;;5075586;28;20445;-77
2024/01/31 02:09:04;;;;;;;8.65;0.75;;;4.80;99.90;;;;;;5075733;28;20467;-77
2024/01/31 02:11:30;;;;;;;7.53;0.98;;;4.80;99.90;;;;;;5075451;28;20071;-77
2024/01/31 02:14:01;;;;;;;6.82;1.25;;;4.80;99.90;;;;;;5075857;28;20039;-77
2024/01/31 02:16:27;;;;;;;6.05;0.82;;;4.80;99.90;;;;;;5075916;28;20071;-77
2024/01/31 02:18:52;;;;;;;4.95;1.15;;;4.80;99.90;;;;;;5074453;28;20107;-77
2024/01/31 02:21:19;;;;;;;6.65;0.70;;;4.80;99.90;;;;;;5075509;28;20445;-77
2024/01/31 02:23:44;;;;;;;13.60;1.25;;;4.80;99.90;;;;;;5075636;28;20036;-77
2024/01/31 02:26:10;;;;;;;6.82;1.10;;;4.80;99.90;;;;;;5075441;28;20372;-77
2024/01/31 02:28:36;;;;;;;6.93;1.20;;;4.80;99.90;;;;;;5075636;28;20044;-76
2024/01/31 02:31:02;;;;;;;6.43;0.80;;;4.80;99.90;;;;;;5094041;28;20055;-77
2024/01/31 02:33:28;;;;;;;7.28;0.90;;;4.80;99.90;;;;;;5093555;28;20071;-77
2024/01/31 02:35:53;;;;;;;8.15;0.93;;;4.80;99.90;;;;;;5075392;28;20044;-77
2024/01/31 02:38:19;;;;;;;5.47;0.82;;;4.80;99.90;;;;;;5075300;28;20032;-77
2024/01/31 02:40:44;;;;;;;5.97;1.30;;;4.80;99.90;;;;;;5075077;28;20097;-77
2024/01/31 02:43:10;;;;;;;6.28;1.30;;;4.80;99.90;;;;;;5075636;28;20055;-77
2024/01/31 02:45:37;;;;;;;8.07;0.60;;;4.80;99.90;;;;;;5075138;28;20064;-77
2024/01/31 02:48:04;;;;;;;5.07;0.93;;;4.80;99.90;;;;;;5075115;28;20052;-76
2024/01/31 02:50:31;;;;;;;10.00;0.98;;;4.80;99.90;;;;;;5075255;28;20379;-76
2024/01/31 02:52:56;;;;;;;5.50;0.65;;;4.80;99.90;;;;;;5075480;28;20079;-76
2024/01/31 02:55:22;;;;;;;8.25;0.90;;;4.80;99.90;;;;;;5075520;28;20106;-76
2024/01/31 02:57:48;;;;;;;5.95;1.80;;;4.80;99.90;;;;;;5075400;28;20044;-77
2024/01/31 03:00:17;;;;;;;6.18;1.00;;;4.70;99.90;;;;;;5075226;28;20040;-77
2024/01/31 03:03:03;;;;;;;9.20;0.98;;;4.80;99.90;;;;;;5074885;28;20044;-77
2024/01/31 03:05:28;;;;;;;9.82;1.83;;;4.80;99.90;;;;;;5074768;28;20059;-76
2024/01/31 03:07:54;;;;;;;8.20;1.13;;;4.80;99.90;;;;;;5075371;28;20040;-76
2024/01/31 03:10:19;;;;;;;5.20;0.93;;;4.80;99.90;;;;;;5075064;28;20441;-76
2024/01/31 03:12:45;;;;;;;12.90;1.90;;;4.80;99.90;;;;;;5074904;28;20047;-76
2024/01/31 03:15:11;;;;;;;7.13;1.13;;;4.80;99.90;;;;;;5074775;28;20048;-76
2024/01/31 03:17:36;;;;;;;6.78;1.20;;;4.80;99.90;;;;;;5075050;28;20051;-76
2024/01/31 03:20:06;;;;;;;6.93;0.80;;;4.70;99.90;;;;;;5075150;28;20140;-77
2024/01/31 03:22:32;;;;;;;4.25;1.17;;;4.70;99.90;;;;;;5074849;28;20043;-77
2024/01/31 03:25:00;;;;;;;8.77;1.60;;;4.70;99.90;;;;;;5077116;28;20079;-77
2024/01/31 03:27:26;;;;;;;8.18;1.40;;;4.60;99.90;;;;;;5078539;28;20422;-77
2024/01/31 03:29:51;;;;;;;6.38;0.90;;;4.60;99.90;;;;;;5078427;28;20044;-77
2024/01/31 03:32:17;;;;;;;8.90;0.98;;;4.50;99.90;;;;;;5078257;28;20048;-77
2024/01/31 03:34:42;;;;;;;6.07;0.85;;;4.50;99.90;;;;;;5078293;28;20044;-77
2024/01/31 03:37:08;;;;;;;10.20;1.40;;;4.50;99.90;;;;;;5078562;28;20078;-77
2024/01/31 03:39:34;;;;;;;9.95;1.15;;;4.40;99.90;;;;;;5078556;28;20052;-77
2024/01/31 03:42:05;;;;;;;8.10;1.17;;;4.40;99.90;;;;;;5077932;28;20052;-77
2024/01/31 03:44:37;;;;;;;8.02;1.30;;;4.30;99.90;;;;;;5078073;28;20040;-77
2024/01/31 03:47:05;;;;;;;8.70;0.98;;;4.30;99.90;;;;;;5077715;28;20048;-77
2024/01/31 03:49:37;;;;;;;9.85;1.23;;;4.20;99.90;;;;;;5078316;28;20136;-77
2024/01/31 03:52:03;;;;;;;9.18;1.73;;;4.20;99.90;;;;;;5078566;28;20040;-77
2024/01/31 03:54:28;;;;;;;12.48;0.98;;;4.10;99.90;;;;;;5078183;28;20092;-77
2024/01/31 03:56:54;;;;;;;4.45;0.88;;;4.00;99.90;;;;;;5077727;28;20123;-77
2024/01/31 03:59:20;;;;;;;7.65;2.15;;;4.00;99.90;;;;;;5077897;28;20048;-77
2024/01/31 04:01:49;;;;;;;5.32;0.82;;;4.00;99.90;;;;;;5077767;28;20475;-77
2024/01/31 04:04:15;;;;;;;8.57;1.25;;;3.90;99.90;;;;;;5077813;28;20036;-77
2024/01/31 04:06:41;;;;;;;8.68;1.08;;;3.90;99.90;;;;;;5095831;28;20036;-76
2024/01/31 04:09:06;;;;;;;6.75;1.17;;;3.80;99.90;;;;;;5077838;28;20439;-77
2024/01/31 04:11:34;;;;;;;6.50;0.82;;;3.80;99.90;;;;;;5077776;28;20048;-77
2024/01/31 04:14:01;;;;;;;8.88;1.10;;;3.70;99.90;;;;;;5095575;28;20479;-77
2024/01/31 04:16:27;;;;;;;3.42;0.75;;;3.70;99.90;;;;;;5077867;28;20128;-77
2024/01/31 04:18:53;;;;;;;7.82;0.95;;;3.70;99.90;;;;;;5077551;28;20044;-77
2024/01/31 04:21:23;;;;;;;7.20;1.00;;;3.70;99.90;;;;;;5077571;28;20134;-77
2024/01/31 04:23:51;;;;;;;;;;;3.60;99.90;;;;;;5077608;28;20449;-77
2024/01/31 04:26:17;;;;;;;6.20;1.33;;;3.70;99.90;;;;;;5077259;28;19920;-77
2024/01/31 04:28:45;;;;;;;8.45;1.13;;;3.60;99.90;;;;;;5077527;28;20057;-77
2024/01/31 04:31:13;;;;;;;7.25;1.48;;;3.70;99.90;;;;;;5076936;28;20056;-77
2024/01/31 04:33:38;;;;;;;7.63;1.10;;;3.70;99.90;;;;;;5077113;28;20106;-77
2024/01/31 04:36:07;;;;;;;7.20;1.08;;;3.70;99.90;;;;;;5076875;28;20086;-77
2024/01/31 04:38:46;;;;;;;9.48;1.00;;;3.70;99.90;;;;;;5095214;28;20044;-77
2024/01/31 04:41:11;;;;;;;6.97;1.55;;;3.70;99.90;;;;;;5076903;28;20044;-77
2024/01/31 04:43:37;;;;;;;5.97;1.20;;;3.60;99.90;;;;;;5076855;28;20089;-77
2024/01/31 04:46:03;;;;;;;6.53;0.90;;;3.60;99.90;;;;;;5076562;28;20071;-76
2024/01/31 04:48:28;;;;;;;6.00;1.05;;;3.60;99.90;;;;;;5076815;28;20036;-77
2024/01/31 04:50:57;;;;;;;4.68;0.88;;;3.60;99.90;;;;;;5094858;28;20109;-77
2024/01/31 04:53:22;;;;;;;9.32;1.25;;;3.50;99.90;;;;;;5094776;28;20126;-77
2024/01/31 04:55:48;;;;;;;5.47;1.00;;;3.50;99.90;;;;;;5076421;28;20185;-77
2024/01/31 04:58:14;;;;;;;9.50;1.17;;;3.50;99.90;;;;;;5076607;28;20047;-76
2024/01/31 05:00:39;;;;;;;5.93;1.52;;;3.50;99.90;;;;;;5075463;28;20492;-77
2024/01/31 05:03:05;;;;;;;9.15;1.42;;;3.50;99.90;;;;;;5076701;28;20070;-77
2024/01/31 05:05:33;;;;;;;6.20;1.25;;;3.50;99.90;;;;;;5076362;28;20048;-77
2024/01/31 05:07:59;;;;;;;8.32;1.60;;;3.50;99.90;;;;;;5076371;28;20048;-77
2024/01/31 05:10:24;;;;;;;3.92;0.77;;;3.40;99.90;;;;;;5076184;28;20040;-77
2024/01/31 05:12:50;;;;;;;6.07;0.70;;;3.40;99.90;;;;;;5076480;28;20495;-77
2024/01/31 05:15:15;;;;;;;3.78;0.80;;;3.40;99.90;;;;;;5076683;28;20040;-77
2024/01/31 05:17:41;;;;;;;7.50;1.00;;;3.40;99.90;;;;;;5076625;28;20064;-77
2024/01/31 05:20:07;;;;;;;8.43;1.77;;;3.30;99.90;;;;;;5094478;28;20051;-77
2024/01/31 05:22:33;;;;;;;7.25;1.08;;;3.30;99.90;;;;;;5076011;28;20054;-76
2024/01/31 05:25:02;;;;;;;9.45;1.45;;;3.30;99.90;;;;;;5076246;28;20126;-77
2024/01/31 05:27:28;;;;;;;9.23;0.90;;;3.30;99.90;;;;;;5090809;28;20056;-77
2024/01/31 05:29:53;;;;;;;7.30;1.10;;;3.30;99.90;;;;;;5076070;28;20108;-76
2024/01/31 05:32:19;;;;;;;4.60;0.90;;;3.30;99.90;;;;;;5075827;28;20487;-77
2024/01/31 05:34:45;;;;;;;8.95;0.93;;;3.30;99.90;;;;;;5075919;28;20044;-77
2024/01/31 05:37:10;;;;;;;6.20;1.10;;;3.20;99.90;;;;;;5075929;28;20055;-77
2024/01/31 05:39:36;;;;;;;7.07;1.23;;;3.20;99.90;;;;;;5076260;28;20098;-77
2024/01/31 05:42:02;;;;;;;4.55;0.93;;;3.20;99.90;;;;;;5075954;28;20048;-77
2024/01/31 05:44:27;;;;;;;6.15;1.70;;;3.10;99.90;;;;;;5094075;28;20055;-76
2024/01/31 05:46:53;;;;;;;5.45;0.93;;;3.00;99.90;;;;;;5075135;28;20051;-77
2024/01/31 05:49:19;;;;;;;4.13;1.38;;;3.00;99.90;;;;;;5075746;28;20079;-77
2024/01/31 05:51:44;;;;;;;5.88;0.95;;;2.90;99.90;;;;;;5075648;28;20138;-76
2024/01/31 05:54:13;;;;;;;6.43;1.42;;;2.90;99.90;;;;;;5075712;28;20055;-77
2024/01/31 05:56:39;;;;;;;3.50;1.02;;;2.90;99.90;;;;;;5075762;28;20044;-77
2024/01/31 05:59:05;;;;;;;6.82;1.20;;;2.80;99.90;;;;;;5076058;28;20040;-77
2024/01/31 06:01:30;;;;;;;7.70;0.85;;;2.80;99.90;;;;;;5075538;28;20391;-77
2024/01/31 06:03:56;;;;;;;5.60;0.95;;;2.70;99.90;;;;;;5075848;28;20123;-77
2024/01/31 06:06:22;;;;;;;9.07;1.02;;;2.70;99.90;;;;;;5075627;28;20050;-77
2024/01/31 06:08:47;;;;;;;6.22;1.20;;;2.70;99.90;;;;;;5075511;28;20036;-77
2024/01/31 06:11:13;;;;;;;4.53;1.23;;;2.70;99.90;;;;;;5075911;28;20055;-77
2024/01/31 06:13:39;;;;;;;4.13;0.93;;;2.70;99.90;;;;;;5075650;28;20044;-77
2024/01/31 06:16:05;;;;;;;6.55;1.73;;;2.70;99.90;;;;;;5075619;28;20113;-77
2024/01/31 06:18:34;;;;;;;7.07;1.25;;;2.70;99.90;;;;;;5075365;28;20532;-76
2024/01/31 06:21:01;;;;;;;7.80;1.08;;;2.70;99.90;;;;;;5075275;28;20044;-76
2024/01/31 06:23:26;;;;;;;3.70;1.10;;;2.70;99.90;;;;;;5075663;28;20425;-77
2024/01/31 06:25:52;;;;;;;7.68;1.42;;;2.70;99.90;;;;;;5075634;28;20138;-77
2024/01/31 06:28:18;;;;;;;10.18;1.48;;;2.70;99.90;;;;;;5075735;28;20489;-77
2024/01/31 06:30:44;;;;;;;11.20;1.55;;;2.80;99.90;;;;;;5075712;28;20048;-77
2024/01/31 06:33:11;;;;;;;7.40;1.35;;;2.80;99.90;;;;;;5075534;28;20052;-77
2024/01/31 06:35:41;;;;;;;9.27;1.52;;;2.90;99.90;;;;;;5075531;28;20541;-77
2024/01/31 06:38:07;;;;;;;7.72;1.30;;;2.90;99.90;;;;;;5075430;28;20063;-77
2024/01/31 06:40:33;;;;;;;8.73;1.73;;;2.90;99.90;;;;;;5075489;28;20036;-76
2024/01/31 06:42:58;;;;;;;3.58;1.20;;;3.00;99.90;;;;;;5075332;28;20080;-77
2024/01/31 06:45:24;;;;;;;4.65;1.90;;;3.10;99.90;;;;;;5075043;28;20052;-77
2024/01/31 06:47:54;;;;;;;6.57;1.33;;;3.10;99.90;;;;;;5075285;28;20134;-77
2024/01/31 06:50:21;;;;;;;7.55;1.70;;;3.10;99.90;;;;;;5093389;28;20044;-77
2024/01/31 06:52:47;;;;;;;10.30;1.52;;;3.20;99.90;;;;;;5075198;28;20051;-77
2024/01/31 06:55:13;;;;;;;9.07;2.15;;;3.20;99.90;;;;;;5075217;28;20154;-76
2024/01/31 06:57:39;;;;;;;6.68;2.15;;;3.20;99.90;;;;;;5075130;28;20488;-77
2024/01/31 07:00:06;;;;;;;7.93;1.80;;;3.30;99.90;;;;;;5077514;28;20038;-76
2024/01/31 07:02:32;;;;;;;8.93;1.80;;;3.30;99.90;;;;;;5078532;28;20117;-77
2024/01/31 07:04:58;;;;;;;5.45;1.73;;;3.30;99.90;;;;;;5079136;28;20123;-77
2024/01/31 07:07:23;;;;;;;6.53;1.83;;;3.40;99.90;;;;;;5078865;28;20401;-77
2024/01/31 07:09:49;;;;;;;8.18;2.25;;;3.40;99.90;;;;;;5097027;28;20032;-77
2024/01/31 07:12:15;;;;;;;9.25;2.05;;;3.40;99.90;;;;;;5079037;28;20539;-77
2024/01/31 07:14:43;;;;;;;9.23;1.67;;;3.40;99.90;;;;;;5078557;28;20448;-77
2024/01/31 07:17:09;;;;;;;8.50;2.35;;;3.50;99.90;;;;;;5078553;28;20039;-77
2024/01/31 07:19:35;;;;;;;6.57;1.50;;;3.50;99.90;;;;;;5078576;28;20505;-77
2024/01/31 07:22:01;;;;;;;5.43;1.80;;;3.50;99.90;;;;;;5096418;28;20052;-76
2024/01/31 07:24:27;;;;;;;7.75;1.90;;;3.60;99.90;;;;;;5078115;28;20403;-76
2024/01/31 07:26:53;;;;;;;5.75;1.23;;;3.60;99.90;;;;;;5077610;28;20055;-76
2024/01/31 07:29:19;;;;;;;7.90;1.83;;;3.60;99.90;;;;;;5078520;28;20040;-77
2024/01/31 07:31:47;;;;;;;10.50;1.60;;;3.60;99.90;;;;;;5078223;28;20055;-76
2024/01/31 07:34:13;;;;;;;9.23;1.90;;;3.60;99.90;;;;;;5077992;28;20093;-77
2024/01/31 07:36:39;;;;;;;8.13;1.75;;;3.60;99.90;;;;;;5078282;28;20044;-76
2024/01/31 07:39:07;;;;;;;9.52;2.35;;;3.60;99.90;;;;;;5077499;28;20125;-76
2024/01/31 07:41:33;;;;;;;8.80;1.98;;;3.70;99.90;;;;;;5077861;28;20090;-77
2024/01/31 07:43:59;;;;;;;10.82;2.25;;;3.70;99.90;;;;;;5078220;28;20045;-77
2024/01/31 07:46:25;;;;;;;8.98;2.35;;;3.70;99.90;;;;;;5077733;28;20413;-77
2024/01/31 07:48:52;;;;;;;11.10;2.35;;;3.70;99.90;;;;;;5078025;28;20047;-77
2024/01/31 07:51:18;;;;;;;9.02;2.65;;;3.80;99.90;;;;;;5077699;28;20076;-76
2024/01/31 07:53:44;;;;;;;9.60;2.88;;;3.80;99.90;;;;;;5078072;28;20075;-77
2024/01/31 07:56:09;;;;;;;7.53;2.50;;;3.80;99.90;;;;;;5096137;28;20099;-77
2024/01/31 07:58:35;;;;;;;11.93;3.83;;;3.90;99.90;;;;;;5078077;28;20109;-77
2024/01/31 08:01:03;;;;;;;9.23;3.10;;;3.90;99.90;;;;;;5077968;28;20044;-77
2024/01/31 08:03:30;;;;;;;8.45;3.13;;;3.90;99.90;;;;;;5077755;28;20036;-77
2024/01/31 08:05:55;;;;;;;7.70;3.30;;;4.00;99.90;;;;;;5077839;28;20044;-77
2024/01/31 08:08:21;;;;;;;8.18;3.33;;;4.00;99.90;;;;;;5077553;28;20514;-77
2024/01/31 08:10:47;;;;;;;8.60;3.88;;;4.00;99.90;;;;;;5077289;28;20119;-76
2024/01/31 08:13:16;;;;;;;7.85;3.42;;;4.10;99.90;;;;;;5095603;28;20047;-77
2024/01/31 08:15:41;;;;;;;8.00;3.58;;;4.10;99.90;;;;;;5077754;28;20108;-75
2024/01/31 08:18:07;;;;;;;9.52;4.65;;;4.20;99.90;;;;;;5077689;28;20045;-77
2024/01/31 08:20:32;;;;;;;12.57;4.07;;;4.20;99.90;;;;;;5077489;28;20364;-77
2024/01/31 08:22:58;;;;;;;8.27;4.22;;;4.20;99.90;;;;;;5072826;28;20047;-76
2024/01/31 08:25:24;;;;;;;9.82;4.90;;;4.20;99.90;;;;;;5066009;28;20051;-76
2024/01/31 08:27:50;;;;;;;8.82;5.15;;;4.30;99.90;;;;;;5075145;28;20051;-76
2024/01/31 08:30:16;;;;;;;9.55;4.78;;;4.30;99.90;;;;;;5056844;28;20036;-76
2024/01/31 08:32:42;;;;;;;9.82;5.10;;;4.30;99.90;;;;;;5056921;28;20045;-76
2024/01/31 08:35:10;;;;;;;10.63;5.30;;;4.30;99.90;;;;;;5056790;28;20044;-76
2024/01/31 08:37:36;;;;;;;8.20;5.18;;;4.40;99.90;;;;;;5056550;28;20389;-76
2024/01/31 08:40:01;;;;;;;10.45;5.47;;;4.40;99.90;;;;;;5056906;28;20522;-76
2024/01/31 08:42:28;;;;;;;9.55;5.45;;;4.50;99.90;;;;;;5056616;28;20515;-79
2024/01/31 08:44:57;;;;;;;12.60;6.00;;;4.50;99.90;;;;;;5081594;23;20045;-77
2024/01/31 08:47:23;;;;;;;8.63;5.05;;;4.50;99.90;;;;;;5074494;28;20044;-76
2024/01/31 08:49:49;;;;;;;11.45;5.93;;;4.60;99.90;;;;;;5074654;28;20037;-76
2024/01/31 08:52:15;;;;;;;11.13;6.28;;;4.60;99.90;;;;;;5073032;28;20094;-76
2024/01/31 08:54:41;;;;;;;10.57;6.25;;;4.60;99.90;;;;;;5074246;28;20454;-77
2024/01/31 08:57:06;;;;;;;11.10;6.38;;;4.60;99.90;;;;;;5073172;28;20049;-77
2024/01/31 08:59:35;;;;;;;11.80;6.57;;;4.70;99.90;;;;;;5073757;28;20523;-76
2024/01/31 09:02:00;;;;;;;13.23;6.05;;;4.70;99.90;;;;;;5074044;28;20519;-76
2024/01/31 09:04:26;;;;;;;12.15;7.10;;;4.70;99.90;;;;;;5073181;28;20048;-82
2024/01/31 09:06:52;;;;;;;11.45;6.55;;;4.80;99.90;;;;;;5072747;28;20443;-77
2024/01/31 09:09:17;;;;;;;13.35;7.30;;;4.80;99.90;;;;;;5074114;28;20123;-77
2024/01/31 09:11:44;;;;;;;12.73;6.35;;;4.90;99.90;;;;;;5073013;28;20055;-77
2024/01/31 09:14:11;;;;;;;10.68;6.72;;;4.90;99.90;;;;;;5072719;28;20408;-77
2024/01/31 09:16:37;;;;;;;11.75;6.70;;;5.00;99.90;;;;;;5072891;28;20044;-77
2024/01/31 09:19:03;;;;;;;12.40;6.55;;;5.10;99.90;;;;;;5072597;28;20051;-76
2024/01/31 09:21:29;;;;;;;13.05;7.03;;;5.10;99.90;;;;;;5068567;28;20120;-77
2024/01/31 09:23:56;;;;;;;15.65;7.53;;;5.10;99.90;;;;;;5063801;28;20408;-77
2024/01/31 09:26:22;;;;;;;10.27;6.63;;;5.10;99.90;;;;;;5071188;28;20056;-77
2024/01/31 09:28:48;;;;;;;16.40;7.57;;;5.20;99.90;;;;;;5066703;28;20044;-77
2024/01/31 09:31:24;;;;;;;11.80;7.30;;;5.20;99.90;;;;;;5052374;28;20111;-77
2024/01/31 09:33:59;;;;;;;14.05;7.80;;;5.20;99.90;;;;;;5052614;28;20116;-77
2024/01/31 09:36:26;;;;;;;13.23;6.68;;;5.20;99.90;;;;;;5052339;28;20570;-77
2024/01/31 09:38:52;;;;;;;15.70;8.05;;;5.20;99.90;;;;;;5053490;28;20057;-77
2024/01/31 09:41:17;;;;;;;15.05;8.13;;;5.30;99.90;;;;;;5052358;28;20059;-77
2024/01/31 09:43:46;;;;;;;13.38;7.97;;;5.30;99.90;;;;;;5052288;28;20107;-77
2024/01/31 09:46:13;;;;;;;14.13;8.40;;;5.40;99.90;;;;;;5053130;28;20052;-77
2024/01/31 09:48:42;;;;;;;14.80;8.10;;;5.40;99.90;;;;;;5053438;28;20051;-77
2024/01/31 09:51:08;;;;;;;14.55;8.40;;;5.40;99.90;;;;;;5053334;28;20477;-77
2024/01/31 09:53:38;;;;;;;13.93;8.20;;;5.40;99.90;;;;;;5053457;28;20103;-77
2024/01/31 09:56:07;;;;;;;14.65;8.43;;;5.50;99.90;;;;;;5053424;28;20041;-77
2024/01/31 09:58:33;;;;;;;15.25;7.88;;;5.50;99.90;;;;;;5035383;28;20045;-76
2024/01/31 10:01:03;;;;;;;14.63;8.73;;;5.50;99.90;;;;;;5035358;28;20045;-76
2024/01/31 10:03:28;;;;;;;15.82;9.30;;;5.50;99.90;;;;;;5053404;28;20045;-77
2024/01/31 10:05:54;;;;;;;14.60;8.32;;;5.60;99.90;;;;;;5035345;28;20174;-77
2024/01/31 10:08:20;;;;;;;15.90;9.75;;;5.60;99.90;;;;;;5053166;28;20040;-77
2024/01/31 10:10:47;;;;;;;15.00;8.63;;;5.70;99.90;;;;;;5053029;28;20193;-77
2024/01/31 10:13:13;;;;;;;14.95;8.27;;;5.70;99.90;;;;;;5053286;28;20033;-77
2024/01/31 10:15:38;;;;;;;17.35;9.68;;;5.70;99.90;;;;;;5035149;28;20052;-77
2024/01/31 10:18:05;;;;;;;17.60;9.23;;;5.70;99.90;;;;;;5035539;28;20060;-77
2024/01/31 10:20:30;;;;;;;16.00;8.38;;;5.80;99.90;;;;;;5035436;28;20049;-77
2024/01/31 10:22:58;;;;;;;15.48;9.23;;;5.80;99.90;;;;;;5052998;28;20043;-77
2024/01/31 10:25:25;;;;;;;20.00;10.10;;;5.80;99.90;;;;;;5035454;28;20152;-77
2024/01/31 10:27:52;;;;;;;16.63;9.23;;;5.80;99.90;;;;;;5035352;28;20107;-77
2024/01/31 10:30:18;;;;;;;16.17;9.52;;;5.80;99.90;;;;;;5035104;28;20473;-77
2024/01/31 10:32:45;;;;;;;15.57;8.10;;;5.90;99.90;;;;;;5035374;28;20103;-77
2024/01/31 10:35:11;;;;;;;14.68;7.78;;;5.90;99.90;;;;;;5041630;28;20405;-77
2024/01/31 10:37:37;;;;;;;16.52;8.88;;;5.90;99.90;;;;;;5039353;28;20052;-77
2024/01/31 10:40:06;;;;;;;14.23;8.20;;;6.00;99.90;;;;;;5039071;28;20052;-77
2024/01/31 10:42:32;;;;;;;17.65;8.68;;;6.00;99.90;;;;;;5038792;28;20048;-77
2024/01/31 10:44:58;;;;;;;14.02;7.82;;;6.00;99.90;;;;;;5041096;28;20041;-77
2024/01/31 10:47:24;;;;;;;13.50;8.35;;;6.00;99.90;;;;;;5056862;28;20064;-77
2024/01/31 10:49:51;;;;;;;11.77;7.35;;;6.20;99.90;;;;;;5056715;28;20045;-76
2024/01/31 10:52:20;;;;;;;14.30;7.85;;;6.10;99.90;;;;;;5056752;28;20048;-77
2024/01/31 10:55:03;;;;;;;15.30;7.80;;;6.10;99.90;;;;;;5056452;28;20523;-77
2024/01/31 10:57:31;;;;;;;12.00;7.35;;;6.20;99.90;;;;;;5055608;28;20488;-77
2024/01/31 10:59:57;;;;;;;14.23;7.35;;;6.20;99.90;;;;;;5056671;28;20045;-77
2024/01/31 11:02:30;;;;;;;13.98;7.05;;;6.20;99.90;;;;;;5056570;28;20052;-77
2024/01/31 11:05:12;;;;;;;11.27;6.63;;;6.30;99.90;;;;;;5056629;28;20044;-77
2024/01/31 11:07:45;;;;;;;11.07;6.53;;;6.30;99.90;;;;;;5055119;28;20064;-77
2024/01/31 11:10:22;;;;;;;12.23;7.75;;;6.30;99.90;;;;;;5055355;28;20041;-77
2024/01/31 11:13:07;;;;;;;12.05;7.70;;;6.30;99.90;;;;;;5055238;28;20057;-77
2024/01/31 11:15:34;;;;;;;15.50;7.53;;;6.30;99.90;;;;;;5054264;28;20056;-77
2024/01/31 11:18:11;;;;;;;12.30;7.15;;;6.30;99.90;;;;;;5055195;28;20151;-77
2024/01/31 11:20:47;;;;;;;13.80;6.90;;;6.30;99.90;;;;;;5056236;28;20162;-76
2024/01/31 11:23:20;;;;;;;18.65;6.97;;;6.30;99.90;;;;;;5054672;28;20419;-76
2024/01/31 11:25:46;;;;;;;14.80;7.50;;;6.40;99.90;;;;;;5055006;28;20049;-75
2024/01/31 11:28:13;;;;;;;11.55;6.53;;;6.30;99.90;;;;;;5056161;28;20123;-77
2024/01/31 11:30:42;;;;;;;12.63;7.45;;;6.40;99.90;;;;;;5054566;28;20052;-76
2024/01/31 11:33:11;;;;;;;11.93;6.63;;;6.40;99.90;;;;;;5056005;28;20049;-76
2024/01/31 11:35:37;;;;;;;10.27;5.40;;;6.30;99.90;;;;;;5054250;28;20045;-77
2024/01/31 11:43:17;;;;;;;10.35;5.55;;;6.40;99.90;;;;;;5217194;22;20062;-77
2024/01/31 11:45:43;;;;;;;13.77;6.25;;;6.40;99.90;;;;;;5003464;28;20054;-76
2024/01/31 11:48:08;;;;;;;12.20;6.28;;;6.40;99.90;;;;;;4998577;28;20076;-75
2024/01/31 11:50:34;;;;;;;10.20;6.03;;;6.40;99.90;;;;;;4998274;28;20050;-76
2024/01/31 11:53:00;;;;;;;10.15;5.72;;;6.40;99.90;;;;;;5015890;28;20080;-75
2024/01/31 11:55:28;;;;;;;10.05;5.63;;;6.40;99.90;;;;;;4998438;28;20045;-77
2024/01/31 11:57:54;;;;;;;11.73;5.88;;;6.50;99.90;;;;;;4998353;28;20053;-81
2024/01/31 12:00:23;;;;;;;11.55;5.85;;;6.40;99.90;;;;;;4998219;28;20103;-75
2024/01/31 12:02:49;;;;;;;13.35;6.28;;;6.40;99.90;;;;;;4997777;28;20077;-76
2024/01/31 12:05:15;;;;;;;9.95;5.57;;;6.40;99.90;;;;;;4998350;28;20080;-76
2024/01/31 12:07:41;;;;;;;9.52;5.43;;;6.40;99.90;;;;;;4998070;28;20144;-79
2024/01/31 12:10:07;;;;;;;10.32;5.88;;;6.40;99.90;;;;;;4997673;28;20042;-76
2024/01/31 12:12:41;;;;;;;11.45;5.75;;;6.30;99.90;;;;;;5015411;28;20374;-82
2024/01/31 12:15:11;;;;;;;10.15;5.80;;;6.40;99.90;;;;;;4997710;28;20049;-78
2024/01/31 12:17:38;;;;;;;9.18;5.30;;;6.40;99.90;;;;;;4997857;28;20077;-78
2024/01/31 12:20:05;;;;;;;8.45;5.18;;;6.40;99.90;;;;;;4997758;28;20085;-76
2024/01/31 12:22:38;;;;;;;10.65;6.53;;;6.50;99.90;;;;;;5015222;28;20064;-77
2024/01/31 12:25:07;;;;;;;10.05;6.05;;;6.40;99.90;;;;;;5015280;28;20049;-77
2024/01/31 12:27:33;;;;;;;9.00;5.35;;;6.50;99.90;;;;;;4997587;28;20042;-76
2024/01/31 12:29:59;;;;;;;11.93;6.15;;;6.40;99.90;;;;;;5015384;28;20052;-75
2024/01/31 12:32:25;;;;;;;11.13;5.85;;;6.50;99.90;;;;;;4997530;28;20060;-75
2024/01/31 12:34:51;;;;;;;10.52;5.95;;;6.50;99.90;;;;;;4997456;28;20132;-76
2024/01/31 12:37:17;;;;;;;11.65;6.15;;;6.50;99.90;;;;;;5015127;28;20050;-75
2024/01/31 12:39:43;;;;;;;8.52;5.22;;;6.50;99.90;;;;;;4997334;28;20046;-76
2024/01/31 12:42:10;;;;;;;9.70;5.38;;;6.50;99.90;;;;;;4997104;28;20065;-77
2024/01/31 12:44:36;;;;;;;9.90;6.00;;;6.50;99.90;;;;;;5016806;28;20042;-75
2024/01/31 12:47:05;;;;;;;9.88;5.32;;;6.50;99.90;;;;;;5030261;28;20054;-75
2024/01/31 12:49:33;;;;;;;7.97;5.32;;;6.50;99.90;;;;;;4997401;28;20042;-76
2024/01/31 12:52:00;;;;;;;9.07;5.38;;;6.60;99.90;;;;;;4997149;28;20056;-76
2024/01/31 12:54:26;;;;;;;7.55;5.07;;;6.50;99.90;;;;;;4997375;28;20049;-76
2024/01/31 12:56:55;;;;;;;10.38;5.22;;;6.60;99.90;;;;;;4997095;28;20049;-75